sensor_id;sensor_type;location;lat;lon;timestamp;temperature;humidity
56044;DHT22;41912;51.022;3.664;2023-02-28T00:00:18;4.30;98.50
56044;DHT22;41912;51.022;3.664;2023-02-28T00:02:45;4.20;98.60
56044;DHT22;41912;51.022;3.664;2023-02-28T00:05:14;4.20;98.70
56044;DHT22;41912;51.022;3.664;2023-02-28T00:07:40;4.20;98.80
56044;DHT22;41912;51.022;3.664;2023-02-28T00:10:12;4.10;99.00
56044;DHT22;41912;51.022;3.664;2023-02-28T00:12:38;4.10;99.10
56044;DHT22;41912;51.022;3.664;2023-02-28T00:15:09;4.10;99.10
56044;DHT22;41912;51.022;3.664;2023-02-28T00:17:36;4.00;99.20
56044;DHT22;41912;51.022;3.664;2023-02-28T00:20:02;4.00;99.30
56044;DHT22;41912;51.022;3.664;2023-02-28T00:22:28;3.90;99.50
56044;DHT22;41912;51.022;3.664;2023-02-28T00:24:54;3.90;99.60
56044;DHT22;41912;51.022;3.664;2023-02-28T00:27:20;3.80;99.80
56044;DHT22;41912;51.022;3.664;2023-02-28T00:29:46;3.80;99.90
56044;DHT22;41912;51.022;3.664;2023-02-28T00:32:12;3.70;99.90
56044;DHT22;41912;51.022;3.664;2023-02-28T00:34:38;3.60;99.90
56044;DHT22;41912;51.022;3.664;2023-02-28T00:37:09;3.60;99.90
56044;DHT22;41912;51.022;3.664;2023-02-28T00:39:36;3.50;99.90
56044;DHT22;41912;51.022;3.664;2023-02-28T00:42:03;3.50;99.90
56044;DHT22;41912;51.022;3.664;2023-02-28T00:44:30;3.40;99.90
56044;DHT22;41912;51.022;3.664;2023-02-28T00:46:56;3.40;99.90
56044;DHT22;41912;51.022;3.664;2023-02-28T00:49:23;3.30;99.90
56044;DHT22;41912;51.022;3.664;2023-02-28T00:51:49;3.30;99.90
56044;DHT22;41912;51.022;3.664;2023-02-28T00:54:15;3.30;99.90
56044;DHT22;41912;51.022;3.664;2023-02-28T00:56:41;3.30;99.90
56044;DHT22;41912;51.022;3.664;2023-02-28T00:59:07;3.20;99.90
56044;DHT22;41912;51.022;3.664;2023-02-28T01:01:32;3.20;99.90
56044;DHT22;41912;51.022;3.664;2023-02-28T01:03:58;3.10;99.90
56044;DHT22;41912;51.022;3.664;2023-02-28T01:06:23;3.10;99.90
56044;DHT22;41912;51.022;3.664;2023-02-28T01:08:49;3.00;99.90
56044;DHT22;41912;51.022;3.664;2023-02-28T01:11:16;3.00;99.90
56044;DHT22;41912;51.022;3.664;2023-02-28T01:13:43;3.00;99.90
56044;DHT22;41912;51.022;3.664;2023-02-28T01:16:08;3.00;99.90
56044;DHT22;41912;51.022;3.664;2023-02-28T01:18:35;3.00;99.90
56044;DHT22;41912;51.022;3.664;2023-02-28T01:21:10;2.90;99.90
56044;DHT22;41912;51.022;3.664;2023-02-28T01:23:36;2.80;99.90
56044;DHT22;41912;51.022;3.664;2023-02-28T01:26:13;2.80;99.90
56044;DHT22;41912;51.022;3.664;2023-02-28T01:28:39;2.80;99.90
56044;DHT22;41912;51.022;3.664;2023-02-28T01:31:05;2.80;99.90
56044;DHT22;41912;51.022;3.664;2023-02-28T01:33:31;2.70;99.90
56044;DHT22;41912;51.022;3.664;2023-02-28T01:35:58;2.70;99.90
56044;DHT22;41912;51.022;3.664;2023-02-28T01:38:24;2.60;99.90
56044;DHT22;41912;51.022;3.664;2023-02-28T01:40:52;2.70;99.90
56044;DHT22;41912;51.022;3.664;2023-02-28T01:43:26;2.70;99.90
56044;DHT22;41912;51.022;3.664;2023-02-28T01:45:53;2.60;99.90
56044;DHT22;41912;51.022;3.664;2023-02-28T01:48:25;2.60;99.90
56044;DHT22;41912;51.022;3.664;2023-02-28T01:50:52;2.60;99.90
56044;DHT22;41912;51.022;3.664;2023-02-28T01:53:21;2.60;99.90
56044;DHT22;41912;51.022;3.664;2023-02-28T01:55:51;2.50;99.90
56044;DHT22;41912;51.022;3.664;2023-02-28T01:58:17;2.50;99.90
56044;DHT22;41912;51.022;3.664;2023-02-28T02:00:43;2.40;99.90
56044;DHT22;41912;51.022;3.664;2023-02-28T02:03:12;2.40;99.90
56044;DHT22;41912;51.022;3.664;2023-02-28T02:05:40;2.40;99.90
56044;DHT22;41912;51.022;3.664;2023-02-28T02:08:10;2.30;99.90
56044;DHT22;41912;51.022;3.664;2023-02-28T02:10:46;2.30;99.90
56044;DHT22;41912;51.022;3.664;2023-02-28T02:14:04;2.30;99.90
56044;DHT22;41912;51.022;3.664;2023-02-28T02:19:34;2.20;99.90
56044;DHT22;41912;51.022;3.664;2023-02-28T02:25:28;2.10;99.90
56044;DHT22;41912;51.022;3.664;2023-02-28T02:36:33;2.10;99.90
56044;DHT22;41912;51.022;3.664;2023-02-28T02:41:54;2.00;99.90
56044;DHT22;41912;51.022;3.664;2023-02-28T02:44:34;2.00;99.90
56044;DHT22;41912;51.022;3.664;2023-02-28T02:47:12;1.90;99.90
56044;DHT22;41912;51.022;3.664;2023-02-28T02:49:42;1.90;99.90
56044;DHT22;41912;51.022;3.664;2023-02-28T02:52:11;1.90;99.90
56044;DHT22;41912;51.022;3.664;2023-02-28T02:54:41;1.90;99.90
56044;DHT22;41912;51.022;3.664;2023-02-28T02:57:11;1.90;99.90
56044;DHT22;41912;51.022;3.664;2023-02-28T02:59:40;1.90;99.90
56044;DHT22;41912;51.022;3.664;2023-02-28T03:02:09;1.80;99.90
56044;DHT22;41912;51.022;3.664;2023-02-28T03:04:43;1.80;99.90
56044;DHT22;41912;51.022;3.664;2023-02-28T03:07:10;1.80;99.90
56044;DHT22;41912;51.022;3.664;2023-02-28T03:09:36;1.80;99.90
56044;DHT22;41912;51.022;3.664;2023-02-28T03:12:02;1.80;99.90
56044;DHT22;41912;51.022;3.664;2023-02-28T03:14:32;1.70;99.90
56044;DHT22;41912;51.022;3.664;2023-02-28T03:20:13;1.70;99.90
56044;DHT22;41912;51.022;3.664;2023-02-28T03:26:06;1.70;99.90
56044;DHT22;41912;51.022;3.664;2023-02-28T03:28:45;1.70;99.90
56044;DHT22;41912;51.022;3.664;2023-02-28T03:34:06;1.70;99.90
56044;DHT22;41912;51.022;3.664;2023-02-28T03:36:37;1.60;99.90
56044;DHT22;41912;51.022;3.664;2023-02-28T03:39:22;1.60;99.90
56044;DHT22;41912;51.022;3.664;2023-02-28T03:41:55;1.60;99.90
56044;DHT22;41912;51.022;3.664;2023-02-28T03:44:32;1.60;99.90
56044;DHT22;41912;51.022;3.664;2023-02-28T03:47:03;1.60;99.90
56044;DHT22;41912;51.022;3.664;2023-02-28T03:49:46;1.60;99.90
56044;DHT22;41912;51.022;3.664;2023-02-28T03:52:13;1.60;99.90
56044;DHT22;41912;51.022;3.664;2023-02-28T03:54:45;1.60;99.90
56044;DHT22;41912;51.022;3.664;2023-02-28T03:57:21;1.60;99.90
56044;DHT22;41912;51.022;3.664;2023-02-28T04:02:44;1.60;99.90
56044;DHT22;41912;51.022;3.664;2023-02-28T04:05:10;1.60;99.90
56044;DHT22;41912;51.022;3.664;2023-02-28T04:07:36;1.70;99.90
56044;DHT22;41912;51.022;3.664;2023-02-28T04:10:03;1.70;99.90
56044;DHT22;41912;51.022;3.664;2023-02-28T04:12:29;1.70;99.90
56044;DHT22;41912;51.022;3.664;2023-02-28T04:14:55;1.70;99.90
56044;DHT22;41912;51.022;3.664;2023-02-28T04:17:20;1.70;99.90
56044;DHT22;41912;51.022;3.664;2023-02-28T04:19:46;1.70;99.90
56044;DHT22;41912;51.022;3.664;2023-02-28T04:22:12;1.80;99.90
56044;DHT22;41912;51.022;3.664;2023-02-28T04:24:37;1.80;99.90
56044;DHT22;41912;51.022;3.664;2023-02-28T04:27:08;1.80;99.90
56044;DHT22;41912;51.022;3.664;2023-02-28T04:29:34;1.80;99.90
56044;DHT22;41912;51.022;3.664;2023-02-28T04:32:00;1.90;99.90
56044;DHT22;41912;51.022;3.664;2023-02-28T04:34:27;1.90;99.90
56044;DHT22;41912;51.022;3.664;2023-02-28T04:36:54;1.90;99.90
56044;DHT22;41912;51.022;3.664;2023-02-28T04:39:21;2.00;99.90
56044;DHT22;41912;51.022;3.664;2023-02-28T04:41:47;2.00;99.90
56044;DHT22;41912;51.022;3.664;2023-02-28T04:44:13;2.00;99.90
56044;DHT22;41912;51.022;3.664;2023-02-28T04:46:40;2.00;99.90
56044;DHT22;41912;51.022;3.664;2023-02-28T04:49:11;2.10;99.90
56044;DHT22;41912;51.022;3.664;2023-02-28T04:51:36;2.10;99.90
56044;DHT22;41912;51.022;3.664;2023-02-28T04:54:02;2.10;99.90
56044;DHT22;41912;51.022;3.664;2023-02-28T04:56:28;2.10;99.90
56044;DHT22;41912;51.022;3.664;2023-02-28T04:58:53;2.20;99.90
56044;DHT22;41912;51.022;3.664;2023-02-28T05:01:28;2.20;99.90
56044;DHT22;41912;51.022;3.664;2023-02-28T05:03:56;2.20;99.90
56044;DHT22;41912;51.022;3.664;2023-02-28T05:06:25;2.20;99.90
56044;DHT22;41912;51.022;3.664;2023-02-28T05:08:51;2.20;99.90
56044;DHT22;41912;51.022;3.664;2023-02-28T05:11:26;2.20;99.90
56044;DHT22;41912;51.022;3.664;2023-02-28T05:13:52;2.20;99.90
56044;DHT22;41912;51.022;3.664;2023-02-28T05:16:19;2.20;99.90
56044;DHT22;41912;51.022;3.664;2023-02-28T05:18:45;2.20;99.90
56044;DHT22;41912;51.022;3.664;2023-02-28T05:21:34;2.30;99.90
56044;DHT22;41912;51.022;3.664;2023-02-28T05:24:02;2.30;99.90
56044;DHT22;41912;51.022;3.664;2023-02-28T05:26:29;2.30;99.90
56044;DHT22;41912;51.022;3.664;2023-02-28T05:28:55;2.30;99.90
56044;DHT22;41912;51.022;3.664;2023-02-28T05:31:21;2.30;99.90
56044;DHT22;41912;51.022;3.664;2023-02-28T05:33:47;2.30;99.90
56044;DHT22;41912;51.022;3.664;2023-02-28T05:36:13;2.40;99.90
56044;DHT22;41912;51.022;3.664;2023-02-28T05:38:39;2.40;99.90
56044;DHT22;41912;51.022;3.664;2023-02-28T05:41:06;2.40;99.90
56044;DHT22;41912;51.022;3.664;2023-02-28T05:43:32;2.40;99.90
56044;DHT22;41912;51.022;3.664;2023-02-28T05:45:57;2.40;99.90
56044;DHT22;41912;51.022;3.664;2023-02-28T05:48:23;2.50;99.90
56044;DHT22;41912;51.022;3.664;2023-02-28T05:50:49;2.50;99.90
56044;DHT22;41912;51.022;3.664;2023-02-28T05:53:14;2.50;99.90
56044;DHT22;41912;51.022;3.664;2023-02-28T05:55:41;2.50;99.90
56044;DHT22;41912;51.022;3.664;2023-02-28T05:58:06;2.60;99.90
56044;DHT22;41912;51.022;3.664;2023-02-28T06:00:32;2.60;99.90
56044;DHT22;41912;51.022;3.664;2023-02-28T06:02:57;2.60;99.90
56044;DHT22;41912;51.022;3.664;2023-02-28T06:05:27;2.60;99.90
56044;DHT22;41912;51.022;3.664;2023-02-28T06:07:53;2.60;99.90
56044;DHT22;41912;51.022;3.664;2023-02-28T06:10:18;2.70;99.90
56044;DHT22;41912;51.022;3.664;2023-02-28T06:12:45;2.70;99.90
56044;DHT22;41912;51.022;3.664;2023-02-28T06:15:15;2.70;99.90
56044;DHT22;41912;51.022;3.664;2023-02-28T06:17:42;2.70;99.90
56044;DHT22;41912;51.022;3.664;2023-02-28T06:20:09;2.80;99.90
56044;DHT22;41912;51.022;3.664;2023-02-28T06:22:36;2.80;99.90
56044;DHT22;41912;51.022;3.664;2023-02-28T06:25:03;2.80;99.90
56044;DHT22;41912;51.022;3.664;2023-02-28T06:27:30;2.80;99.90
56044;DHT22;41912;51.022;3.664;2023-02-28T06:29:55;2.80;99.90
56044;DHT22;41912;51.022;3.664;2023-02-28T06:32:21;2.90;99.90
56044;DHT22;41912;51.022;3.664;2023-02-28T06:34:47;2.90;99.90
56044;DHT22;41912;51.022;3.664;2023-02-28T06:37:13;2.90;99.90
56044;DHT22;41912;51.022;3.664;2023-02-28T06:39:38;2.90;99.90
56044;DHT22;41912;51.022;3.664;2023-02-28T06:42:05;2.90;99.90
56044;DHT22;41912;51.022;3.664;2023-02-28T06:44:31;3.00;99.90
56044;DHT22;41912;51.022;3.664;2023-02-28T06:47:03;3.00;99.90
56044;DHT22;41912;51.022;3.664;2023-02-28T06:49:30;3.00;99.90
56044;DHT22;41912;51.022;3.664;2023-02-28T06:51:56;3.00;99.90
56044;DHT22;41912;51.022;3.664;2023-02-28T06:54:22;3.00;99.90
56044;DHT22;41912;51.022;3.664;2023-02-28T06:56:47;3.10;99.90
56044;DHT22;41912;51.022;3.664;2023-02-28T06:59:13;3.10;99.90
56044;DHT22;41912;51.022;3.664;2023-02-28T07:01:40;3.10;99.90
56044;DHT22;41912;51.022;3.664;2023-02-28T07:04:06;3.20;99.90
56044;DHT22;41912;51.022;3.664;2023-02-28T07:06:32;3.20;99.90
56044;DHT22;41912;51.022;3.664;2023-02-28T07:08:58;3.20;99.90
56044;DHT22;41912;51.022;3.664;2023-02-28T07:11:26;3.30;99.90
56044;DHT22;41912;51.022;3.664;2023-02-28T07:13:56;3.30;99.90
56044;DHT22;41912;51.022;3.664;2023-02-28T07:16:23;3.30;99.90
56044;DHT22;41912;51.022;3.664;2023-02-28T07:18:51;3.30;99.90
56044;DHT22;41912;51.022;3.664;2023-02-28T07:21:17;3.40;99.90
56044;DHT22;41912;51.022;3.664;2023-02-28T07:23:42;3.40;99.90
56044;DHT22;41912;51.022;3.664;2023-02-28T07:26:15;3.40;99.90
56044;DHT22;41912;51.022;3.664;2023-02-28T07:28:42;3.40;99.90
56044;DHT22;41912;51.022;3.664;2023-02-28T07:31:08;3.50;99.90
56044;DHT22;41912;51.022;3.664;2023-02-28T07:33:34;3.50;99.90
56044;DHT22;41912;51.022;3.664;2023-02-28T07:36:23;3.50;99.90
56044;DHT22;41912;51.022;3.664;2023-02-28T07:38:49;3.60;99.90
56044;DHT22;41912;51.022;3.664;2023-02-28T07:41:16;3.60;99.90
56044;DHT22;41912;51.022;3.664;2023-02-28T07:43:42;3.60;99.90
56044;DHT22;41912;51.022;3.664;2023-02-28T07:46:11;3.60;99.90
56044;DHT22;41912;51.022;3.664;2023-02-28T07:48:37;3.70;99.90
56044;DHT22;41912;51.022;3.664;2023-02-28T07:51:03;3.70;99.90
56044;DHT22;41912;51.022;3.664;2023-02-28T07:53:30;3.60;99.90
56044;DHT22;41912;51.022;3.664;2023-02-28T07:55:56;3.70;99.90
56044;DHT22;41912;51.022;3.664;2023-02-28T07:58:22;3.70;99.90
56044;DHT22;41912;51.022;3.664;2023-02-28T08:00:48;3.70;99.90
56044;DHT22;41912;51.022;3.664;2023-02-28T08:03:13;3.80;99.90
56044;DHT22;41912;51.022;3.664;2023-02-28T08:05:39;3.90;99.90
56044;DHT22;41912;51.022;3.664;2023-02-28T08:08:06;3.80;99.90
56044;DHT22;41912;51.022;3.664;2023-02-28T08:10:32;3.90;99.90
56044;DHT22;41912;51.022;3.664;2023-02-28T08:12:57;3.90;99.90
56044;DHT22;41912;51.022;3.664;2023-02-28T08:15:23;4.00;99.90
56044;DHT22;41912;51.022;3.664;2023-02-28T08:17:49;4.00;99.90
56044;DHT22;41912;51.022;3.664;2023-02-28T08:20:14;4.00;99.90
56044;DHT22;41912;51.022;3.664;2023-02-28T08:22:40;4.10;99.90
56044;DHT22;41912;51.022;3.664;2023-02-28T08:25:07;4.10;99.90
56044;DHT22;41912;51.022;3.664;2023-02-28T08:27:33;4.10;99.90
56044;DHT22;41912;51.022;3.664;2023-02-28T08:29:58;4.20;99.90
56044;DHT22;41912;51.022;3.664;2023-02-28T08:32:24;4.20;99.90
56044;DHT22;41912;51.022;3.664;2023-02-28T08:34:50;4.30;99.90
56044;DHT22;41912;51.022;3.664;2023-02-28T08:37:16;4.30;99.90
56044;DHT22;41912;51.022;3.664;2023-02-28T08:39:42;4.30;99.90
56044;DHT22;41912;51.022;3.664;2023-02-28T08:42:07;4.40;99.90
56044;DHT22;41912;51.022;3.664;2023-02-28T08:44:33;4.30;99.90
56044;DHT22;41912;51.022;3.664;2023-02-28T08:46:59;4.40;99.90
56044;DHT22;41912;51.022;3.664;2023-02-28T08:49:25;4.40;99.90
56044;DHT22;41912;51.022;3.664;2023-02-28T08:51:50;4.40;99.90
56044;DHT22;41912;51.022;3.664;2023-02-28T08:54:16;4.50;99.90
56044;DHT22;41912;51.022;3.664;2023-02-28T08:56:45;4.50;99.90
56044;DHT22;41912;51.022;3.664;2023-02-28T08:59:12;4.50;99.90
56044;DHT22;41912;51.022;3.664;2023-02-28T09:01:38;4.50;99.90
56044;DHT22;41912;51.022;3.664;2023-02-28T09:04:04;4.50;99.90
56044;DHT22;41912;51.022;3.664;2023-02-28T09:06:32;4.60;99.90
56044;DHT22;41912;51.022;3.664;2023-02-28T09:08:58;4.60;99.90
56044;DHT22;41912;51.022;3.664;2023-02-28T09:11:25;4.60;99.90
56044;DHT22;41912;51.022;3.664;2023-02-28T09:13:50;4.60;99.90
56044;DHT22;41912;51.022;3.664;2023-02-28T09:16:16;4.60;99.90
56044;DHT22;41912;51.022;3.664;2023-02-28T09:18:42;4.60;99.90
56044;DHT22;41912;51.022;3.664;2023-02-28T09:21:10;4.60;99.90
56044;DHT22;41912;51.022;3.664;2023-02-28T09:23:38;4.60;99.90
56044;DHT22;41912;51.022;3.664;2023-02-28T09:26:05;4.60;99.90
56044;DHT22;41912;51.022;3.664;2023-02-28T09:28:31;4.60;99.90
56044;DHT22;41912;51.022;3.664;2023-02-28T09:30:57;4.70;99.90
56044;DHT22;41912;51.022;3.664;2023-02-28T09:33:24;4.70;99.90
56044;DHT22;41912;51.022;3.664;2023-02-28T09:35:56;4.70;99.90
56044;DHT22;41912;51.022;3.664;2023-02-28T09:38:22;4.70;99.90
56044;DHT22;41912;51.022;3.664;2023-02-28T09:40:54;4.70;99.90
56044;DHT22;41912;51.022;3.664;2023-02-28T09:43:23;4.70;99.90
56044;DHT22;41912;51.022;3.664;2023-02-28T09:48:39;4.70;99.90
56044;DHT22;41912;51.022;3.664;2023-02-28T09:53:54;4.70;99.90
56044;DHT22;41912;51.022;3.664;2023-02-28T10:01:31;4.80;99.90
56044;DHT22;41912;51.022;3.664;2023-02-28T10:03:59;4.80;99.80
56044;DHT22;41912;51.022;3.664;2023-02-28T10:06:32;4.80;99.90
56044;DHT22;41912;51.022;3.664;2023-02-28T10:09:04;4.90;99.70
56044;DHT22;41912;51.022;3.664;2023-02-28T10:11:33;4.80;99.60
56044;DHT22;41912;51.022;3.664;2023-02-28T10:14:15;4.90;99.20
56044;DHT22;41912;51.022;3.664;2023-02-28T10:16:53;4.90;99.10
56044;DHT22;41912;51.022;3.664;2023-02-28T10:19:40;4.90;98.90
56044;DHT22;41912;51.022;3.664;2023-02-28T10:22:14;5.00;99.00
56044;DHT22;41912;51.022;3.664;2023-02-28T10:24:46;5.00;98.70
56044;DHT22;41912;51.022;3.664;2023-02-28T10:27:17;5.00;98.80
56044;DHT22;41912;51.022;3.664;2023-02-28T10:29:46;5.10;98.80
56044;DHT22;41912;51.022;3.664;2023-02-28T10:32:18;5.10;98.50
56044;DHT22;41912;51.022;3.664;2023-02-28T10:34:50;5.10;98.30
56044;DHT22;41912;51.022;3.664;2023-02-28T10:37:16;5.20;98.40
56044;DHT22;41912;51.022;3.664;2023-02-28T10:39:45;5.20;97.50
56044;DHT22;41912;51.022;3.664;2023-02-28T10:42:25;5.30;97.50
56044;DHT22;41912;51.022;3.664;2023-02-28T10:47:59;5.40;96.80
56044;DHT22;41912;51.022;3.664;2023-02-28T11:01:40;5.60;95.80
56044;DHT22;41912;51.022;3.664;2023-02-28T11:07:06;5.80;95.70
56044;DHT22;41912;51.022;3.664;2023-02-28T11:09:44;5.90;95.60
56044;DHT22;41912;51.022;3.664;2023-02-28T11:12:27;6.10;95.20
56044;DHT22;41912;51.022;3.664;2023-02-28T11:15:04;6.20;94.30
56044;DHT22;41912;51.022;3.664;2023-02-28T11:17:31;6.30;94.20
56044;DHT22;41912;51.022;3.664;2023-02-28T11:20:14;6.50;94.00
56044;DHT22;41912;51.022;3.664;2023-02-28T11:22:45;6.60;93.10
56044;DHT22;41912;51.022;3.664;2023-02-28T11:25:24;6.60;92.50
56044;DHT22;41912;51.022;3.664;2023-02-28T11:28:01;6.70;92.70
56044;DHT22;41912;51.022;3.664;2023-02-28T11:30:38;6.70;91.90
56044;DHT22;41912;51.022;3.664;2023-02-28T11:33:27;6.70;92.40
56044;DHT22;41912;51.022;3.664;2023-02-28T11:35:57;6.80;92.10
56044;DHT22;41912;51.022;3.664;2023-02-28T11:38:25;6.90;92.20
56044;DHT22;41912;51.022;3.664;2023-02-28T11:48:59;7.20;91.10
56044;DHT22;41912;51.022;3.664;2023-02-28T11:51:35;7.20;90.50
56044;DHT22;41912;51.022;3.664;2023-02-28T11:54:29;7.30;91.20
56044;DHT22;41912;51.022;3.664;2023-02-28T12:00:25;7.50;89.30
56044;DHT22;41912;51.022;3.664;2023-02-28T12:03:10;7.50;86.70
56044;DHT22;41912;51.022;3.664;2023-02-28T12:06:15;7.50;87.10
56044;DHT22;41912;51.022;3.664;2023-02-28T12:11:56;7.70;84.80
56044;DHT22;41912;51.022;3.664;2023-02-28T12:17:14;7.80;83.20
56044;DHT22;41912;51.022;3.664;2023-02-28T12:22:29;7.90;81.50
56044;DHT22;41912;51.022;3.664;2023-02-28T12:25:08;8.00;81.80
56044;DHT22;41912;51.022;3.664;2023-02-28T12:27:41;8.00;80.80
56044;DHT22;41912;51.022;3.664;2023-02-28T12:32:49;8.00;79.70
56044;DHT22;41912;51.022;3.664;2023-02-28T12:35:25;8.00;77.90
56044;DHT22;41912;51.022;3.664;2023-02-28T12:40:23;8.10;76.20
56044;DHT22;41912;51.022;3.664;2023-02-28T12:43:00;8.10;77.40
56044;DHT22;41912;51.022;3.664;2023-02-28T12:48:04;8.20;76.50
56044;DHT22;41912;51.022;3.664;2023-02-28T12:50:32;8.20;75.40
56044;DHT22;41912;51.022;3.664;2023-02-28T12:53:06;8.20;72.90
56044;DHT22;41912;51.022;3.664;2023-02-28T12:58:43;8.20;70.40
56044;DHT22;41912;51.022;3.664;2023-02-28T13:01:36;8.30;70.20
56044;DHT22;41912;51.022;3.664;2023-02-28T13:04:40;8.30;66.30
56044;DHT22;41912;51.022;3.664;2023-02-28T13:09:41;8.40;67.30
56044;DHT22;41912;51.022;3.664;2023-02-28T13:12:16;8.40;66.60
56044;DHT22;41912;51.022;3.664;2023-02-28T13:14:43;8.40;64.80
56044;DHT22;41912;51.022;3.664;2023-02-28T13:19:59;8.50;62.80
56044;DHT22;41912;51.022;3.664;2023-02-28T13:22:45;8.50;63.00
56044;DHT22;41912;51.022;3.664;2023-02-28T13:28:09;8.60;65.20
56044;DHT22;41912;51.022;3.664;2023-02-28T13:33:27;8.80;63.30
56044;DHT22;41912;51.022;3.664;2023-02-28T13:38:51;8.90;62.00
56044;DHT22;41912;51.022;3.664;2023-02-28T13:46:34;9.00;61.70
56044;DHT22;41912;51.022;3.664;2023-02-28T14:05:43;9.30;58.80
56044;DHT22;41912;51.022;3.664;2023-02-28T14:08:20;9.20;57.60
56044;DHT22;41912;51.022;3.664;2023-02-28T14:10:49;9.30;58.40
56044;DHT22;41912;51.022;3.664;2023-02-28T14:16:06;9.50;58.80
56044;DHT22;41912;51.022;3.664;2023-02-28T14:18:34;9.50;58.00
56044;DHT22;41912;51.022;3.664;2023-02-28T14:27:15;9.80;57.90
56044;DHT22;41912;51.022;3.664;2023-02-28T14:30:47;9.70;56.20
56044;DHT22;41912;51.022;3.664;2023-02-28T14:36:07;9.60;56.50
56044;DHT22;41912;51.022;3.664;2023-02-28T14:38:40;9.70;57.70
56044;DHT22;41912;51.022;3.664;2023-02-28T14:41:15;9.60;56.70
56044;DHT22;41912;51.022;3.664;2023-02-28T14:43:57;9.60;57.80
56044;DHT22;41912;51.022;3.664;2023-02-28T14:46:32;9.60;57.00
56044;DHT22;41912;51.022;3.664;2023-02-28T14:49:00;9.50;57.00
56044;DHT22;41912;51.022;3.664;2023-02-28T14:51:26;9.60;57.30
56044;DHT22;41912;51.022;3.664;2023-02-28T14:53:57;9.70;57.70
56044;DHT22;41912;51.022;3.664;2023-02-28T14:56:27;9.70;56.60
56044;DHT22;41912;51.022;3.664;2023-02-28T14:58:56;9.60;55.80
56044;DHT22;41912;51.022;3.664;2023-02-28T15:01:24;9.60;56.40
56044;DHT22;41912;51.022;3.664;2023-02-28T15:04:03;9.60;56.80
56044;DHT22;41912;51.022;3.664;2023-02-28T15:06:30;9.70;56.60
56044;DHT22;41912;51.022;3.664;2023-02-28T15:09:10;9.50;55.30
56044;DHT22;41912;51.022;3.664;2023-02-28T15:11:37;9.60;57.30
56044;DHT22;41912;51.022;3.664;2023-02-28T15:14:04;9.60;57.00
56044;DHT22;41912;51.022;3.664;2023-02-28T15:16:39;9.40;56.00
56044;DHT22;41912;51.022;3.664;2023-02-28T15:19:24;9.40;56.60
56044;DHT22;41912;51.022;3.664;2023-02-28T15:22:18;9.40;56.70
56044;DHT22;41912;51.022;3.664;2023-02-28T15:24:48;9.30;56.00
56044;DHT22;41912;51.022;3.664;2023-02-28T15:27:32;9.30;57.00
56044;DHT22;41912;51.022;3.664;2023-02-28T15:30:04;9.30;55.80
56044;DHT22;41912;51.022;3.664;2023-02-28T15:32:33;9.30;56.20
56044;DHT22;41912;51.022;3.664;2023-02-28T15:40:44;9.20;56.80
56044;DHT22;41912;51.022;3.664;2023-02-28T15:43:15;9.00;56.10
56044;DHT22;41912;51.022;3.664;2023-02-28T15:45:50;9.10;57.30
56044;DHT22;41912;51.022;3.664;2023-02-28T15:48:20;9.10;56.90
56044;DHT22;41912;51.022;3.664;2023-02-28T15:50:52;9.10;57.20
56044;DHT22;41912;51.022;3.664;2023-02-28T15:53:58;9.10;57.50
56044;DHT22;41912;51.022;3.664;2023-02-28T15:56:34;9.10;58.00
56044;DHT22;41912;51.022;3.664;2023-02-28T15:59:06;9.00;58.00
56044;DHT22;41912;51.022;3.664;2023-02-28T16:01:34;9.00;57.70
56044;DHT22;41912;51.022;3.664;2023-02-28T16:04:04;9.00;57.70
56044;DHT22;41912;51.022;3.664;2023-02-28T16:06:42;8.90;57.60
56044;DHT22;41912;51.022;3.664;2023-02-28T16:09:14;8.90;57.10
56044;DHT22;41912;51.022;3.664;2023-02-28T16:11:48;8.80;58.10
56044;DHT22;41912;51.022;3.664;2023-02-28T16:14:23;8.70;58.60
56044;DHT22;41912;51.022;3.664;2023-02-28T16:16:52;8.60;57.60
56044;DHT22;41912;51.022;3.664;2023-02-28T16:19:18;8.60;58.40
56044;DHT22;41912;51.022;3.664;2023-02-28T16:21:45;8.50;58.50
56044;DHT22;41912;51.022;3.664;2023-02-28T16:24:11;8.50;59.40
56044;DHT22;41912;51.022;3.664;2023-02-28T16:26:37;8.50;59.50
56044;DHT22;41912;51.022;3.664;2023-02-28T16:29:05;8.40;59.60
56044;DHT22;41912;51.022;3.664;2023-02-28T16:31:37;8.30;59.70
56044;DHT22;41912;51.022;3.664;2023-02-28T16:34:04;8.30;59.60
56044;DHT22;41912;51.022;3.664;2023-02-28T16:36:30;8.30;59.60
56044;DHT22;41912;51.022;3.664;2023-02-28T16:38:56;8.40;59.50
56044;DHT22;41912;51.022;3.664;2023-02-28T16:41:24;8.40;59.60
56044;DHT22;41912;51.022;3.664;2023-02-28T16:43:53;8.40;59.70
56044;DHT22;41912;51.022;3.664;2023-02-28T16:46:20;8.50;59.80
56044;DHT22;41912;51.022;3.664;2023-02-28T16:48:47;8.50;60.20
56044;DHT22;41912;51.022;3.664;2023-02-28T16:51:17;8.50;60.20
56044;DHT22;41912;51.022;3.664;2023-02-28T16:53:44;8.40;59.80
56044;DHT22;41912;51.022;3.664;2023-02-28T16:56:21;8.40;59.90
56044;DHT22;41912;51.022;3.664;2023-02-28T16:58:49;8.30;60.30
56044;DHT22;41912;51.022;3.664;2023-02-28T17:01:15;8.20;60.60
56044;DHT22;41912;51.022;3.664;2023-02-28T17:03:41;8.10;60.50
56044;DHT22;41912;51.022;3.664;2023-02-28T17:06:24;8.10;61.00
56044;DHT22;41912;51.022;3.664;2023-02-28T17:08:52;8.00;61.00
56044;DHT22;41912;51.022;3.664;2023-02-28T17:11:18;7.90;61.10
56044;DHT22;41912;51.022;3.664;2023-02-28T17:13:44;8.00;61.70
56044;DHT22;41912;51.022;3.664;2023-02-28T17:16:36;7.90;61.80
56044;DHT22;41912;51.022;3.664;2023-02-28T17:19:07;7.80;61.90
56044;DHT22;41912;51.022;3.664;2023-02-28T17:21:36;7.80;62.70
56044;DHT22;41912;51.022;3.664;2023-02-28T17:24:02;7.70;62.70
56044;DHT22;41912;51.022;3.664;2023-02-28T17:26:28;7.70;62.70
56044;DHT22;41912;51.022;3.664;2023-02-28T17:28:55;7.70;62.90
56044;DHT22;41912;51.022;3.664;2023-02-28T17:31:25;7.70;62.80
56044;DHT22;41912;51.022;3.664;2023-02-28T17:33:51;7.60;63.10
56044;DHT22;41912;51.022;3.664;2023-02-28T17:36:25;7.60;63.50
56044;DHT22;41912;51.022;3.664;2023-02-28T17:38:52;7.60;64.00
56044;DHT22;41912;51.022;3.664;2023-02-28T17:41:18;7.60;63.80
56044;DHT22;41912;51.022;3.664;2023-02-28T17:43:44;7.50;64.30
56044;DHT22;41912;51.022;3.664;2023-02-28T17:46:21;7.50;64.50
56044;DHT22;41912;51.022;3.664;2023-02-28T17:48:48;7.50;64.70
56044;DHT22;41912;51.022;3.664;2023-02-28T17:51:15;7.50;64.70
56044;DHT22;41912;51.022;3.664;2023-02-28T17:53:41;7.40;65.40
56044;DHT22;41912;51.022;3.664;2023-02-28T17:56:19;7.40;65.70
56044;DHT22;41912;51.022;3.664;2023-02-28T17:58:45;7.40;66.30
56044;DHT22;41912;51.022;3.664;2023-02-28T18:01:11;7.30;66.40
56044;DHT22;41912;51.022;3.664;2023-02-28T18:03:38;7.30;66.90
56044;DHT22;41912;51.022;3.664;2023-02-28T18:06:04;7.20;66.90
56044;DHT22;41912;51.022;3.664;2023-02-28T18:08:31;7.20;67.10
56044;DHT22;41912;51.022;3.664;2023-02-28T18:10:58;7.10;67.40
56044;DHT22;41912;51.022;3.664;2023-02-28T18:13:24;7.10;68.70
56044;DHT22;41912;51.022;3.664;2023-02-28T18:15:50;7.00;68.30
56044;DHT22;41912;51.022;3.664;2023-02-28T18:18:16;7.00;68.80
56044;DHT22;41912;51.022;3.664;2023-02-28T18:20:42;6.90;68.80
56044;DHT22;41912;51.022;3.664;2023-02-28T18:23:07;6.80;68.40